Thomson, New York
Current Conditions -  °F | °C
As of 4:53 PM on Sunday 25 Jan 2015 (Local Time) from KGFL Reporting Station
Clear Clear  
Wind Chill: -12°   Ceiling: Unl
Heat Index: -6°   Visibility: 10mi
Dew Point: -17°   Wind: 10mph
Humidity: 40%   Direction: 340°NNW
Pressure: 29.88"   Gusts: NA
Location:  43.09°N, 73.5018°W
Report Text: KGFL 252153Z AUTO 34009KT 10SM CLR M06/M17 A2988 RMK AO2 SLP127 T10561172
Loading
Personal Weather Stations






























Interactive Weather Map New forecast layout! Learn more

10-Day Weather Forecast

Advertisements
Track Severe Weather on mobile